Time;durP1;ratioP1;P1;durP2;ratioP2;P2;SDS_P1;SDS_P2;PMS_P1;PMS_P2;Temp;Humidity;BMP_temperature;BMP_pressure;BME280_temperature;BME280_humidity;BME280_pressure;Samples;Min_cycle;Max_cycle;Signal;HPM_P1;HPM_P2
2021/08/08 03:16:33;;;;;;;;;;;;;;;;;;;;;
2021/08/08 03:20:26;;;;;;;;;;;;;;;;;;;;;
2021/08/08 03:31:13;;;;;;;3.25;1.88;;;;;;;16.09;90.16;92107.41;4787439;30;20111;-95
2021/08/08 03:45:19;;;;;;;;;;;;;;;;;;;;;
2021/08/08 03:57:57;;;;;;;;;;;;;;;;;;;;;
2021/08/08 04:09:03;;;;;;;2.70;1.73;;;;;;;15.82;88.88;92128.03;4735974;30;20073;-94
2021/08/08 04:16:04;;;;;;;1.33;1.08;;;;;;;15.78;88.51;92114.75;4758543;30;20052;-94
2021/08/08 04:19:32;;;;;;;3.03;1.73;;;;;;;15.76;88.50;92110.88;4742456;30;20090;-95
2021/08/08 04:23:08;;;;;;;;;;;;;;;;;;;;;
2021/08/08 04:30:31;;;;;;;2.78;1.63;;;;;;;15.86;88.68;92123.66;4744947;30;20076;-95
2021/08/08 04:33:43;;;;;;;;;;;;;;;;;;;;;
2021/08/08 04:48:30;;;;;;;1.17;0.97;;;;;;;16.41;89.90;92172.59;4762337;30;20061;-96
2021/08/08 04:56:04;;;;;;;;;;;;;;;;;;;;;
2021/08/08 04:59:57;;;;;;;;;;;;;;;;;;;;;
2021/08/08 05:14:46;;;;;;;2.90;1.80;;;;;;;16.75;88.76;92190.97;4689260;30;20053;-96
2021/08/08 05:17:50;;;;;;;;;;;;;;;;;;;;;
2021/08/08 05:21:36;;;;;;;;;;;;;;;;;;;;;
2021/08/08 05:29:10;;;;;;;;;;;;;;;;;;;;;
2021/08/08 05:40:44;;;;;;;2.30;1.83;;;;;;;17.37;85.64;92154.66;4761424;30;20055;-94
2021/08/08 05:44:37;;;;;;;;;;;;;;;;;;;;;
2021/08/08 06:07:34;;;;;;;;;;;;;;;;;;;;;
2021/08/08 06:11:16;;;;;;;;;;;;;;;;;;;;;
2021/08/08 06:13:56;;;;;;;2.38;1.70;;;;;;;19.93;75.66;92222.09;4682895;24;20089;-79
2021/08/08 06:16:22;;;;;;;1.25;1.00;;;;;;;20.18;72.88;92222.56;4756504;30;20048;-79
2021/08/08 06:18:48;;;;;;;3.80;2.25;;;;;;;19.86;72.75;92218.50;4742938;30;20086;-80
2021/08/08 06:21:13;;;;;;;2.13;1.38;;;;;;;19.57;74.80;92233.88;4758248;30;20052;-78
2021/08/08 06:23:47;;;;;;;2.22;1.40;;;;;;;19.32;75.73;92231.44;4743458;30;20035;-79
2021/08/08 06:26:12;;;;;;;2.00;1.73;;;;;;;19.16;76.06;92227.28;4728550;30;20071;-80
2021/08/08 06:28:38;;;;;;;1.65;1.17;;;;;;;18.97;77.20;92230.66;4773084;30;20040;-79
2021/08/08 06:31:04;;;;;;;2.10;1.42;;;;;;;18.99;79.42;92233.72;4742173;30;20070;-78
2021/08/08 06:33:30;;;;;;;4.53;1.60;;;;;;;18.91;80.40;92235.44;4749865;30;20040;-79
2021/08/08 06:35:56;;;;;;;3.95;1.83;;;;;;;18.98;80.06;92243.56;4725625;30;20107;-79
2021/08/08 06:38:22;;;;;;;3.67;1.58;;;;;;;19.06;77.62;92239.97;4754213;30;20556;-79
2021/08/08 06:40:47;;;;;;;6.47;1.95;;;;;;;19.19;76.12;92240.63;4738867;30;20043;-79
2021/08/08 06:43:13;;;;;;;2.03;1.50;;;;;;;19.33;76.24;92240.94;4756657;30;20435;-79
2021/08/08 06:45:41;;;;;;;1.42;1.00;;;;;;;20.68;69.84;92237.88;4743022;30;20059;-80
2021/08/08 06:48:06;;;;;;;3.72;2.03;;;;;;;20.56;70.76;92246.78;4748052;30;20039;-78
2021/08/08 06:50:32;;;;;;;2.70;1.73;;;;;;;22.53;63.75;92238.84;4779311;30;20035;-79
2021/08/08 06:52:59;;;;;;;4.00;1.65;;;;;;;22.32;63.59;92252.72;4778857;30;20104;-80
2021/08/08 06:55:25;;;;;;;2.72;1.60;;;;;;;21.13;68.34;92260.25;4763423;30;20031;-79
2021/08/08 06:57:51;;;;;;;1.52;1.20;;;;;;;20.55;70.12;92253.19;4763940;30;20043;-79
2021/08/08 07:00:18;;;;;;;5.35;2.42;;;;;;;20.52;70.72;92253.91;4773776;30;20089;-79
2021/08/08 07:02:45;;;;;;;5.57;1.90;;;;;;;20.94;71.16;92250.44;4758776;30;20056;-79
2021/08/08 07:05:12;;;;;;;2.20;1.50;;;;;;;21.02;69.11;92264.66;4758872;30;20096;-79
2021/08/08 07:07:39;;;;;;;3.42;1.88;;;;;;;21.71;69.72;92257.31;4759805;30;20500;-79
2021/08/08 07:10:05;;;;;;;2.25;1.55;;;;;;;21.37;68.25;92265.19;4744508;30;20040;-80
2021/08/08 07:12:32;;;;;;;2.60;1.73;;;;;;;21.29;67.99;92260.13;4758789;30;20120;-79
2021/08/08 07:14:58;;;;;;;2.30;1.40;;;;;;;21.44;68.42;92263.78;4757905;30;20055;-80
2021/08/08 07:17:24;;;;;;;2.13;1.52;;;;;;;21.24;69.54;92266.50;4745955;30;20048;-79
2021/08/08 07:19:50;;;;;;;2.33;1.50;;;;;;;21.60;68.44;92261.72;4761278;30;20135;-80
2021/08/08 07:22:16;;;;;;;2.80;1.80;;;;;;;21.57;67.83;92265.09;4761083;30;20054;-79
2021/08/08 07:24:44;;;;;;;5.35;2.20;;;;;;;21.76;66.96;92274.88;4760688;30;20039;-80
2021/08/08 07:27:11;;;;;;;4.13;1.92;;;;;;;21.04;70.17;92267.72;4740937;30;20073;-78
2021/08/08 07:29:37;;;;;;;6.78;3.00;;;;;;;21.35;68.16;92264.78;4757900;30;20044;-79
2021/08/08 07:32:06;;;;;;;3.72;1.58;;;;;;;20.83;68.93;92268.91;4742714;30;20036;-80
2021/08/08 07:34:32;;;;;;;1.77;1.23;;;;;;;20.37;77.36;92274.16;4758361;30;20044;-80
2021/08/08 07:36:58;;;;;;;3.83;1.92;;;;;;;20.26;78.48;92273.19;4742986;30;20032;-79
2021/08/08 07:39:24;;;;;;;2.63;2.00;;;;;;;20.96;72.49;92280.91;4745437;30;20047;-80
2021/08/08 07:41:50;;;;;;;3.00;1.70;;;;;;;20.99;71.33;92279.44;4761103;30;20109;-80
2021/08/08 07:44:16;;;;;;;2.72;2.15;;;;;;;20.67;71.35;92286.84;4759540;30;20050;-80
2021/08/08 07:46:41;;;;;;;4.32;1.55;;;;;;;21.00;71.14;92291.59;4760002;30;20035;-80
2021/08/08 07:49:07;;;;;;;4.03;1.83;;;;;;;20.88;72.25;92292.56;4761017;30;20095;-79
2021/08/08 07:51:33;;;;;;;3.78;2.38;;;;;;;21.20;71.32;92297.63;4775172;30;20044;-80
2021/08/08 07:53:59;;;;;;;2.33;1.52;;;;;;;21.47;68.90;92292.34;4762764;30;20118;-79
2021/08/08 07:56:24;;;;;;;2.97;1.55;;;;;;;21.83;69.36;92294.38;4777965;30;20043;-80
2021/08/08 07:58:50;;;;;;;1.95;1.17;;;;;;;21.09;70.31;92296.69;4775991;30;20207;-79
2021/08/08 08:01:16;;;;;;;5.07;1.90;;;;;;;21.31;70.14;92308.44;4763240;30;20498;-78
2021/08/08 08:03:42;;;;;;;2.67;1.63;;;;;;;21.37;70.08;92305.13;4777638;30;20574;-80
2021/08/08 08:06:08;;;;;;;1.60;0.90;;;;;;;21.55;69.83;92289.44;4777751;30;20046;-80
2021/08/08 08:08:33;;;;;;;1.38;1.10;;;;;;;21.59;70.84;92308.91;4763742;30;20112;-80
2021/08/08 08:11:00;;;;;;;3.28;1.98;;;;;;;21.57;69.72;92308.50;4762698;30;20051;-79
2021/08/08 08:13:25;;;;;;;2.97;2.08;;;;;;;22.29;69.74;92306.00;4778012;30;20035;-80
2021/08/08 08:15:51;;;;;;;4.13;2.13;;;;;;;22.26;69.87;92312.06;4774765;30;20113;-79
2021/08/08 08:18:17;;;;;;;1.67;1.10;;;;;;;21.85;70.68;92311.91;4759784;30;20105;-80
2021/08/08 08:20:43;;;;;;;2.72;1.50;;;;;;;21.68;71.99;92321.94;4730711;30;20035;-79
2021/08/08 08:23:09;;;;;;;2.65;1.50;;;;;;;21.38;70.36;92319.19;4752121;30;20044;-80
2021/08/08 08:25:34;;;;;;;1.77;1.20;;;;;;;21.86;70.95;92321.44;4757710;30;20623;-80
2021/08/08 08:28:00;;;;;;;3.85;2.17;;;;;;;21.92;70.69;92317.34;4742948;30;20036;-80
2021/08/08 08:30:26;;;;;;;3.35;1.95;;;;;;;21.75;70.81;92322.06;4741218;30;20139;-80
2021/08/08 08:32:52;;;;;;;2.30;1.60;;;;;;;21.85;71.43;92317.25;4726607;30;20562;-80
2021/08/08 08:35:17;;;;;;;4.97;2.13;;;;;;;22.28;69.62;92325.81;4742692;30;20418;-80
2021/08/08 08:37:43;;;;;;;3.33;1.85;;;;;;;22.08;68.86;92322.47;4742033;30;20098;-79
2021/08/08 08:40:09;;;;;;;2.72;1.67;;;;;;;22.32;69.24;92321.28;4759833;30;20046;-80
2021/08/08 08:42:45;;;;;;;2.55;1.63;;;;;;;21.95;71.06;92333.38;4758699;30;20035;-80
2021/08/08 08:45:11;;;;;;;2.33;1.75;;;;;;;21.86;71.77;92321.44;4758225;30;20071;-80
2021/08/08 08:47:40;;;;;;;1.30;0.75;;;;;;;21.62;69.99;92329.47;4758600;30;20047;-80
2021/08/08 08:50:08;;;;;;;2.22;1.40;;;;;;;21.79;70.57;92330.84;4758700;30;20581;-80
2021/08/08 08:52:35;;;;;;;3.65;2.33;;;;;;;21.30;69.96;92328.97;4743068;30;20092;-80
2021/08/08 08:55:02;;;;;;;2.15;1.42;;;;;;;22.07;69.13;92335.03;4761667;30;20051;-79
2021/08/08 08:57:30;;;;;;;3.20;2.05;;;;;;;22.46;68.86;92342.78;4775876;30;20066;-80
2021/08/08 08:59:59;;;;;;;3.65;2.30;;;;;;;21.86;66.79;92332.84;4761480;30;20027;-80
2021/08/08 09:02:25;;;;;;;2.08;1.42;;;;;;;21.79;69.44;92338.84;4775354;30;20058;-79
2021/08/08 09:04:52;;;;;;;6.65;1.60;;;;;;;21.95;71.06;92340.59;4776134;30;20076;-80
2021/08/08 09:07:17;;;;;;;2.25;1.52;;;;;;;22.03;68.12;92340.31;4775907;30;20098;-79
2021/08/08 09:09:44;;;;;;;3.35;2.45;;;;;;;22.09;70.96;92340.78;4777240;29;20081;-80
2021/08/08 09:12:18;;;;;;;3.70;2.08;;;;;;;22.32;66.18;92331.97;4776459;30;20035;-79
2021/08/08 09:14:44;;;;;;;2.67;1.63;;;;;;;21.95;71.21;92343.25;4780890;30;20134;-78
2021/08/08 09:17:10;;;;;;;2.70;1.55;;;;;;;22.10;72.05;92342.31;4755741;30;20075;-79
2021/08/08 09:19:37;;;;;;;3.30;2.00;;;;;;;21.95;69.61;92329.91;4744706;30;20052;-80
2021/08/08 09:22:21;;;;;;;2.15;1.40;;;;;;;21.68;68.10;92321.94;4757419;30;20481;-80
2021/08/08 09:24:46;;;;;;;2.80;1.85;;;;;;;22.54;64.74;92324.94;4774410;30;20043;-79
2021/08/08 09:27:13;;;;;;;2.28;1.58;;;;;;;22.62;67.78;92324.66;4757190;30;20047;-80
2021/08/08 09:29:44;;;;;;;4.00;2.38;;;;;;;22.49;66.37;92336.72;4757350;30;20058;-80
2021/08/08 09:32:11;;;;;;;2.70;1.77;;;;;;;22.76;66.20;92329.38;4758345;30;20043;-79
2021/08/08 09:34:41;;;;;;;0.85;0.82;;;;;;;22.53;64.95;92348.19;4756622;30;20491;-80
2021/08/08 09:37:18;;;;;;;2.53;1.60;;;;;;;22.82;64.84;92337.84;4757486;30;20044;-79
2021/08/08 09:39:44;;;;;;;2.70;1.70;;;;;;;22.75;66.08;92343.09;4774721;30;20393;-80
2021/08/08 09:42:15;;;;;;;1.15;0.80;;;;;;;22.30;67.05;92342.97;4756642;30;20089;-80
2021/08/08 09:44:55;;;;;;;1.58;1.17;;;;;;;22.36;66.79;92343.41;4772720;30;20048;-79
2021/08/08 09:47:22;;;;;;;2.78;1.88;;;;;;;22.60;65.46;92360.84;4774610;30;20680;-80
2021/08/08 09:49:59;;;;;;;2.28;1.30;;;;;;;22.61;65.03;92341.81;4742553;30;20069;-80
2021/08/08 09:52:26;;;;;;;4.97;1.95;;;;;;;22.70;65.03;92351.41;4756927;30;20046;-80
2021/08/08 09:54:51;;;;;;;3.55;2.05;;;;;;;22.84;62.19;92359.59;4760121;30;20517;-80
2021/08/08 09:57:17;;;;;;;4.45;2.10;;;;;;;22.77;66.26;92372.84;4774965;30;20067;-80
2021/08/08 09:59:50;;;;;;;8.25;2.00;;;;;;;22.99;65.85;92371.16;4775057;30;20533;-79
2021/08/08 10:02:21;;;;;;;2.63;1.80;;;;;;;22.96;63.73;92356.66;4759590;30;20050;-80
2021/08/08 10:04:50;;;;;;;1.83;1.30;;;;;;;22.95;61.83;92368.47;4790573;30;20046;-79
2021/08/08 10:07:17;;;;;;;2.38;1.75;;;;;;;22.34;64.33;92380.34;4760343;30;20335;-79
2021/08/08 10:09:49;;;;;;;2.30;1.75;;;;;;;21.88;66.25;92385.78;4762134;30;20043;-80
2021/08/08 10:12:25;;;;;;;2.85;1.63;;;;;;;21.69;66.06;92371.44;4755854;30;20036;-80
2021/08/08 10:14:54;;;;;;;3.58;2.10;;;;;;;21.59;67.04;92372.03;4746132;30;20055;-80
2021/08/08 10:17:20;;;;;;;5.78;2.10;;;;;;;21.27;68.81;92360.84;4756291;30;20049;-79
2021/08/08 10:19:50;;;;;;;2.95;1.98;;;;;;;21.26;66.87;92373.41;4770821;30;20051;-79
2021/08/08 10:22:17;;;;;;;4.75;2.72;;;;;;;21.32;68.51;92371.19;4772371;30;20028;-79
2021/08/08 10:24:44;;;;;;;4.32;2.13;;;;;;;21.77;69.08;92366.97;4772604;30;20028;-79
2021/08/08 10:27:09;;;;;;;5.22;1.80;;;;;;;21.32;68.97;92372.00;4742071;30;20415;-80
2021/08/08 10:29:35;;;;;;;2.65;1.80;;;;;;;21.62;69.15;92368.66;4773151;30;20040;-79
2021/08/08 10:32:01;;;;;;;3.33;2.15;;;;;;;22.50;67.08;92374.84;4741800;30;20147;-80
2021/08/08 10:34:30;;;;;;;2.60;1.77;;;;;;;22.79;64.37;92365.25;4771874;30;20295;-79
2021/08/08 10:37:12;;;;;;;3.53;1.75;;;;;;;22.10;66.63;92374.28;4774239;30;20043;-79
2021/08/08 10:39:43;;;;;;;5.07;2.38;;;;;;;21.85;67.41;92379.28;4756681;30;20040;-79
2021/08/08 10:42:09;;;;;;;2.25;1.33;;;;;;;21.75;69.62;92370.00;4772682;30;20052;-79
2021/08/08 10:44:50;;;;;;;2.00;1.40;;;;;;;21.80;69.59;92376.94;4773452;30;20036;-79
2021/08/08 10:47:30;;;;;;;4.88;2.58;;;;;;;22.38;66.94;92370.47;4756587;30;20541;-79
2021/08/08 10:50:14;;;;;;;3.65;1.92;;;;;;;22.98;64.55;92365.06;4756675;30;20080;-79
2021/08/08 10:52:41;;;;;;;1.80;1.27;;;;;;;22.98;64.00;92357.06;4756185;30;20558;-80
2021/08/08 10:55:08;;;;;;;3.45;2.13;;;;;;;22.81;64.34;92379.00;4772994;30;20502;-78
2021/08/08 10:57:43;;;;;;;4.15;2.55;;;;;;;23.20;64.42;92359.97;4755834;30;20043;-79
2021/08/08 11:00:13;;;;;;;3.22;2.10;;;;;;;23.45;61.98;92360.19;4742333;30;20051;-80
2021/08/08 11:02:39;;;;;;;2.40;1.88;;;;;;;23.02;64.43;92365.91;4772847;30;20046;-81
2021/08/08 11:05:12;;;;;;;4.28;2.05;;;;;;;23.42;63.56;92356.34;4757848;30;20024;-80
2021/08/08 11:07:40;;;;;;;3.00;1.85;;;;;;;22.98;60.95;92366.97;4753697;30;20055;-79
2021/08/08 11:10:07;;;;;;;5.65;2.30;;;;;;;22.84;64.67;92368.34;4754871;30;20495;-81
2021/08/08 11:12:34;;;;;;;3.22;2.10;;;;;;;23.28;63.58;92369.56;4737737;30;20055;-80
2021/08/08 11:15:00;;;;;;;3.38;2.45;;;;;;;23.24;63.79;92374.13;4762432;30;20062;-81
2021/08/08 11:17:27;;;;;;;2.63;1.75;;;;;;;22.99;65.46;92368.50;4771355;30;20035;-81
2021/08/08 11:19:54;;;;;;;4.05;2.00;;;;;;;23.42;64.92;92364.34;4754558;30;20044;-80
2021/08/08 11:22:21;;;;;;;3.17;1.95;;;;;;;23.12;62.98;92369.03;4755394;30;20059;-81
2021/08/08 11:25:03;;;;;;;4.22;1.98;;;;;;;22.76;63.02;92376.66;4770714;30;20032;-81
2021/08/08 11:27:28;;;;;;;4.30;2.30;;;;;;;23.24;63.46;92382.13;4771557;30;20050;-81
2021/08/08 11:29:55;;;;;;;2.08;1.45;;;;;;;23.11;61.78;92372.84;4773012;30;20422;-81
2021/08/08 11:32:26;;;;;;;2.75;1.60;;;;;;;22.74;60.75;92381.56;4754933;30;20044;-81
2021/08/08 11:35:07;;;;;;;4.00;2.28;;;;;;;22.72;62.62;92376.63;4774545;30;20039;-81
2021/08/08 11:37:36;;;;;;;3.50;1.58;;;;;;;22.67;62.80;92374.25;4758916;30;20046;-81
2021/08/08 11:40:14;;;;;;;3.35;2.00;;;;;;;22.68;63.77;92381.16;4777278;30;20114;-81
2021/08/08 11:42:40;;;;;;;3.85;2.22;;;;;;;23.30;63.50;92371.88;4793442;30;20134;-81
2021/08/08 11:45:06;;;;;;;3.78;2.33;;;;;;;23.52;56.98;92367.47;4793295;30;20055;-80
2021/08/08 11:47:32;;;;;;;1.92;1.30;;;;;;;23.39;61.40;92358.97;4777822;30;20620;-80
2021/08/08 11:49:58;;;;;;;3.88;1.88;;;;;;;23.16;62.58;92370.59;4792921;30;20047;-81
2021/08/08 11:52:23;;;;;;;3.58;2.15;;;;;;;22.90;61.08;92368.81;4792555;30;20525;-80
2021/08/08 11:55:00;;;;;;;4.13;1.88;;;;;;;22.94;60.52;92374.94;4792552;30;20035;-81
2021/08/08 11:57:29;;;;;;;2.47;1.85;;;;;;;23.06;59.91;92379.28;4776161;30;20047;-80
2021/08/08 11:59:55;;;;;;;3.10;2.15;;;;;;;23.60;61.07;92380.53;4773119;30;20192;-80
2021/08/08 12:02:24;;;;;;;2.08;1.25;;;;;;;23.75;60.84;92376.06;4774210;30;20056;-81
2021/08/08 12:04:54;;;;;;;2.38;1.58;;;;;;;23.59;59.55;92375.56;4758106;30;20036;-81
2021/08/08 12:07:24;;;;;;;2.67;1.70;;;;;;;23.78;61.05;92379.94;4774276;30;20083;-81
2021/08/08 12:09:51;;;;;;;2.58;1.67;;;;;;;23.55;62.23;92372.06;4774648;30;20213;-80
2021/08/08 12:12:18;;;;;;;2.67;1.60;;;;;;;23.05;62.10;92380.41;4758676;30;20043;-81
2021/08/08 12:14:56;;;;;;;2.83;1.77;;;;;;;22.57;63.08;92381.00;4754921;30;20419;-80
2021/08/08 12:17:23;;;;;;;4.00;2.03;;;;;;;22.72;64.89;92381.16;4774242;30;20051;-80
2021/08/08 12:19:51;;;;;;;2.58;1.88;;;;;;;22.83;63.32;92372.16;4775129;30;20079;-81
2021/08/08 12:22:19;;;;;;;3.97;1.95;;;;;;;22.75;62.14;92381.22;4774047;30;20550;-80
2021/08/08 12:24:47;;;;;;;3.90;2.47;;;;;;;22.92;60.39;92374.56;4774293;30;20107;-80
2021/08/08 12:27:29;;;;;;;2.78;1.85;;;;;;;23.18;61.12;92375.59;4775029;30;20055;-80
2021/08/08 12:29:59;;;;;;;3.03;1.85;;;;;;;22.95;61.63;92379.16;4773621;30;20040;-80
2021/08/08 12:32:30;;;;;;;2.30;1.52;;;;;;;22.42;62.41;92379.31;4774179;30;20138;-80
2021/08/08 12:35:05;;;;;;;3.22;1.73;;;;;;;22.06;64.65;92381.47;4758252;30;20052;-80
2021/08/08 12:37:31;;;;;;;3.00;1.60;;;;;;;22.27;66.14;92378.38;4759146;30;20629;-81
2021/08/08 12:40:09;;;;;;;4.57;2.17;;;;;;;22.00;65.36;92374.94;4774361;30;20100;-80
2021/08/08 12:42:35;;;;;;;2.75;1.67;;;;;;;22.17;65.93;92390.38;4775242;30;20077;-80
2021/08/08 12:45:07;;;;;;;2.40;1.52;;;;;;;22.31;63.47;92381.81;4757223;30;20121;-81
2021/08/08 12:47:35;;;;;;;4.63;2.35;;;;;;;22.23;65.12;92383.66;4773318;30;20081;-80
2021/08/08 12:50:16;;;;;;;1.77;1.17;;;;;;;23.06;63.71;92379.28;4774268;30;20031;-80
2021/08/08 12:52:43;;;;;;;3.67;1.73;;;;;;;23.50;61.21;92381.19;4755082;30;20498;-80
2021/08/08 12:55:09;;;;;;;4.38;2.33;;;;;;;22.71;63.23;92390.31;4773049;30;20047;-80
2021/08/08 12:57:35;;;;;;;2.88;2.08;;;;;;;22.36;63.08;92380.75;4774011;30;20047;-80
2021/08/08 13:00:01;;;;;;;2.97;1.77;;;;;;;22.59;63.39;92392.09;4773198;30;20695;-80
2021/08/08 13:02:26;;;;;;;2.65;1.33;;;;;;;22.80;62.39;92388.88;4772957;30;20044;-81
2021/08/08 13:04:52;;;;;;;4.88;2.05;;;;;;;22.92;61.28;92382.56;4772626;30;20066;-81
2021/08/08 13:07:17;;;;;;;3.05;2.05;;;;;;;22.96;59.77;92391.34;4773355;30;20499;-80
2021/08/08 13:09:43;;;;;;;3.25;2.33;;;;;;;23.78;60.15;92378.03;4773343;30;20063;-82
2021/08/08 13:12:09;;;;;;;4.97;2.38;;;;;;;23.79;57.80;92368.84;4772312;30;20055;-82
2021/08/08 13:14:34;;;;;;;3.28;1.52;;;;;;;23.69;58.71;92380.22;4769323;30;20473;-81
2021/08/08 13:17:00;;;;;;;3.17;2.17;;;;;;;23.11;59.51;92375.53;4771141;30;20437;-80
2021/08/08 13:19:26;;;;;;;3.15;2.10;;;;;;;23.61;59.27;92387.41;4755142;30;20048;-81
2021/08/08 13:21:51;;;;;;;4.28;2.35;;;;;;;23.67;61.09;92388.59;4771187;30;20044;-80
2021/08/08 13:24:17;;;;;;;4.53;2.13;;;;;;;23.49;57.61;92391.13;4772000;30;20036;-81
2021/08/08 13:26:43;;;;;;;3.25;1.63;;;;;;;23.86;57.83;92392.97;4771041;30;20048;-80
2021/08/08 13:29:08;;;;;;;2.40;1.55;;;;;;;23.80;57.56;92394.47;4755679;30;20070;-80
2021/08/08 13:31:34;;;;;;;3.05;1.67;;;;;;;23.53;60.48;92391.16;4771571;30;20073;-79
2021/08/08 13:33:59;;;;;;;5.57;2.25;;;;;;;23.69;58.94;92391.66;4755071;30;20036;-79
2021/08/08 13:36:26;;;;;;;4.53;2.67;;;;;;;23.98;58.86;92383.88;4771721;30;20457;-80
2021/08/08 13:38:51;;;;;;;9.40;1.77;;;;;;;23.47;59.67;92376.59;4770983;30;20059;-80
2021/08/08 13:41:17;;;;;;;2.55;1.75;;;;;;;23.17;59.73;92380.16;4771511;30;20048;-81
2021/08/08 13:43:43;;;;;;;1.92;1.25;;;;;;;23.80;58.69;92381.09;4771555;30;20083;-79
2021/08/08 13:46:08;;;;;;;1.83;1.33;;;;;;;24.07;57.16;92378.97;4754770;30;20507;-79
2021/08/08 13:48:34;;;;;;;3.45;1.60;;;;;;;23.42;59.54;92382.28;4737140;30;20108;-81
2021/08/08 13:51:01;;;;;;;2.78;1.90;;;;;;;22.84;61.53;92388.94;4736882;30;20573;-80
2021/08/08 13:53:27;;;;;;;4.18;2.47;;;;;;;22.56;61.65;92392.81;4751896;30;20059;-80
2021/08/08 13:55:53;;;;;;;2.95;1.73;;;;;;;22.51;60.49;92392.38;4751842;30;20143;-81
2021/08/08 13:58:18;;;;;;;1.02;0.95;;;;;;;22.48;61.06;92393.88;4721559;30;20043;-81
2021/08/08 14:00:44;;;;;;;5.03;2.05;;;;;;;23.10;61.83;92396.09;4736978;30;20070;-79
2021/08/08 14:03:16;;;;;;;2.83;1.73;;;;;;;23.38;59.78;92389.50;4753209;30;20048;-80
2021/08/08 14:05:44;;;;;;;1.67;1.35;;;;;;;23.46;60.52;92381.19;4752915;30;20071;-80
2021/08/08 14:08:10;;;;;;;3.45;2.22;;;;;;;23.60;59.50;92390.47;4751878;30;20047;-81
2021/08/08 14:10:36;;;;;;;2.15;1.38;;;;;;;23.97;59.06;92386.94;4753293;30;20067;-79
2021/08/08 14:13:02;;;;;;;3.38;1.88;;;;;;;23.81;57.34;92385.28;4752933;30;20585;-79
2021/08/08 14:15:29;;;;;;;3.00;1.48;;;;;;;23.56;57.93;92390.41;4748625;30;20071;-81
2021/08/08 14:17:55;;;;;;;3.63;1.88;;;;;;;23.83;57.85;92384.94;4754642;30;20059;-80
2021/08/08 14:20:21;;;;;;;2.83;1.80;;;;;;;24.05;57.89;92386.59;4770029;30;20050;-81
2021/08/08 14:22:47;;;;;;;2.97;1.92;;;;;;;23.47;57.99;92385.38;4754741;30;20047;-80
2021/08/08 14:25:12;;;;;;;1.95;1.40;;;;;;;23.51;58.80;92393.44;4770134;30;20437;-79
2021/08/08 14:27:38;;;;;;;13.20;2.20;;;;;;;23.21;58.86;92401.53;4770082;30;20043;-80
2021/08/08 14:30:05;;;;;;;3.60;2.00;;;;;;;22.74;60.36;92401.03;4754364;30;20043;-79
2021/08/08 14:32:30;;;;;;;4.10;1.48;;;;;;;22.68;60.62;92399.06;4739961;30;20048;-80
2021/08/08 14:34:56;;;;;;;3.20;1.88;;;;;;;23.04;59.95;92398.34;4754005;30;20112;-79
2021/08/08 14:37:22;;;;;;;2.95;1.92;;;;;;;23.07;59.07;92402.94;4771264;30;20054;-81
2021/08/08 14:39:48;;;;;;;3.88;2.30;;;;;;;22.61;60.53;92405.84;4769946;30;20088;-80
2021/08/08 14:42:13;;;;;;;3.03;1.98;;;;;;;22.56;61.87;92408.03;4753715;30;20129;-80
2021/08/08 14:44:39;;;;;;;2.97;1.75;;;;;;;22.54;60.61;92408.44;4751627;30;20036;-81
2021/08/08 14:47:06;;;;;;;2.78;1.23;;;;;;;22.83;59.11;92404.19;4740805;30;20468;-82
2021/08/08 14:49:32;;;;;;;5.32;2.15;;;;;;;22.62;60.01;92398.59;4757591;30;20044;-82
2021/08/08 14:51:58;;;;;;;3.10;1.70;;;;;;;22.37;61.50;92408.97;4759620;30;20052;-81
2021/08/08 14:54:23;;;;;;;5.53;1.80;;;;;;;22.16;62.25;92382.75;4759717;30;20028;-82
2021/08/08 14:56:49;;;;;;;3.10;1.58;;;;;;;22.38;62.07;92413.94;4759403;30;20074;-81
2021/08/08 14:59:15;;;;;;;3.70;2.15;;;;;;;22.77;62.04;92418.22;4760419;30;20408;-82
2021/08/08 15:01:40;;;;;;;3.95;1.52;;;;;;;22.84;61.23;92410.28;4759494;30;20059;-82
2021/08/08 15:04:06;;;;;;;6.07;2.58;;;;;;;23.23;60.22;92404.63;4760139;30;20194;-81
2021/08/08 15:06:31;;;;;;;3.38;2.00;;;;;;;22.93;60.31;92413.44;4759530;30;20036;-82
2021/08/08 15:08:57;;;;;;;3.85;2.20;;;;;;;22.91;60.09;92421.03;4747057;30;20059;-81
2021/08/08 15:11:23;;;;;;;2.58;1.50;;;;;;;22.50;59.96;92420.19;4764354;30;20142;-81
2021/08/08 15:13:48;;;;;;;2.95;1.83;;;;;;;22.86;59.21;92424.81;4761009;30;20028;-82
2021/08/08 15:16:14;;;;;;;2.58;1.63;;;;;;;23.48;57.99;92427.00;4765478;30;20473;-82
2021/08/08 15:18:40;;;;;;;3.42;1.38;;;;;;;23.63;55.82;92419.84;4766507;30;20069;-82
2021/08/08 15:21:05;;;;;;;2.75;1.38;;;;;;;23.52;56.57;92426.25;4749948;30;20069;-81
2021/08/08 15:23:31;;;;;;;2.65;1.55;;;;;;;23.47;57.33;92435.38;4765043;30;20059;-81
2021/08/08 15:25:56;;;;;;;2.95;1.83;;;;;;;23.31;58.06;92435.59;4774832;30;20395;-78
2021/08/08 15:28:22;;;;;;;3.42;1.67;;;;;;;23.22;60.16;92437.81;4752974;30;20044;-78
2021/08/08 15:30:49;;;;;;;3.22;1.60;;;;;;;23.73;58.21;92434.44;4754781;30;20732;-77
2021/08/08 15:33:14;;;;;;;5.95;1.75;;;;;;;23.03;59.55;92433.41;4756744;30;20058;-77
2021/08/08 15:35:40;;;;;;;2.75;1.90;;;;;;;22.72;60.14;92429.19;4761838;30;20032;-80
2021/08/08 15:38:05;;;;;;;2.67;1.88;;;;;;;22.58;60.95;92435.13;4756617;30;20067;-78
2021/08/08 15:40:31;;;;;;;6.05;2.15;;;;;;;22.35;61.68;92437.88;4755547;30;20031;-79
2021/08/08 15:42:57;;;;;;;2.97;2.00;;;;;;;22.37;61.14;92440.97;4755364;30;20463;-78
2021/08/08 15:45:22;;;;;;;3.33;2.17;;;;;;;22.09;61.53;92439.41;4763902;30;20042;-77
2021/08/08 15:47:48;;;;;;;2.50;1.58;;;;;;;22.38;61.35;92442.47;4774270;30;20063;-79
2021/08/08 15:50:14;;;;;;;5.05;2.35;;;;;;;22.21;61.53;92443.75;4763335;30;20504;-77
2021/08/08 15:52:39;;;;;;;2.47;1.38;;;;;;;22.21;60.78;92451.75;4755958;30;20051;-77
2021/08/08 15:55:06;;;;;;;6.72;2.22;;;;;;;22.08;61.52;92448.50;4771426;30;20036;-79
2021/08/08 15:57:33;;;;;;;2.58;1.70;;;;;;;22.09;62.31;92451.94;4760333;30;20054;-77
2021/08/08 15:59:59;;;;;;;4.47;2.25;;;;;;;22.03;62.33;92459.50;4755861;30;20075;-77
2021/08/08 16:02:24;;;;;;;3.10;1.83;;;;;;;21.98;63.64;92462.47;4772686;30;20055;-78
2021/08/08 16:04:52;;;;;;;3.70;2.40;;;;;;;22.08;63.86;92456.50;4754695;30;20032;-77
2021/08/08 16:07:17;;;;;;;2.08;1.50;;;;;;;22.48;62.79;92455.19;4729784;30;20047;-77
2021/08/08 16:09:43;;;;;;;4.47;2.25;;;;;;;22.88;61.61;92456.47;4745234;30;20048;-78
2021/08/08 16:12:09;;;;;;;2.75;1.80;;;;;;;23.21;61.10;92455.69;4759545;30;20067;-77
2021/08/08 16:14:34;;;;;;;3.78;2.13;;;;;;;23.32;60.18;92457.72;4773957;30;20048;-78
2021/08/08 16:17:01;;;;;;;3.20;1.83;;;;;;;23.49;57.46;92449.88;4774836;30;20086;-78
2021/08/08 16:19:27;;;;;;;1.92;1.45;;;;;;;23.49;57.51;92457.16;4757409;30;20040;-79
2021/08/08 16:21:53;;;;;;;2.58;1.75;;;;;;;23.58;59.12;92462.19;4739727;30;20107;-78
2021/08/08 16:24:19;;;;;;;2.95;1.60;;;;;;;23.40;61.23;92470.78;4744118;30;20032;-78
2021/08/08 16:26:45;;;;;;;3.60;2.10;;;;;;;23.57;60.80;92465.97;4773148;30;20069;-79
2021/08/08 16:29:10;;;;;;;2.78;1.85;;;;;;;23.42;57.69;92457.09;4756371;30;20039;-78
2021/08/08 16:31:37;;;;;;;3.95;2.05;;;;;;;23.45;56.67;92461.69;4780058;30;20448;-78
2021/08/08 16:34:03;;;;;;;2.28;1.73;;;;;;;23.39;60.11;92457.78;4772080;30;20054;-78
2021/08/08 16:36:28;;;;;;;4.63;1.98;;;;;;;23.55;60.42;92462.91;4773804;30;20047;-78
2021/08/08 16:38:56;;;;;;;2.53;1.63;;;;;;;23.32;60.75;92471.09;4769688;30;20035;-79
2021/08/08 16:41:22;;;;;;;4.05;2.05;;;;;;;23.27;60.24;92469.50;4752982;30;20139;-76
2021/08/08 16:43:50;;;;;;;5.65;1.95;;;;;;;22.90;60.71;92475.56;4771132;30;20036;-77
2021/08/08 16:46:16;;;;;;;3.70;2.45;;;;;;;22.94;60.37;92470.25;4772294;30;20052;-79
2021/08/08 16:48:42;;;;;;;3.63;2.13;;;;;;;22.68;60.90;92468.41;4783573;30;20039;-78
2021/08/08 16:51:07;;;;;;;3.70;2.00;;;;;;;22.79;61.05;92474.66;4773644;30;20047;-78
2021/08/08 16:53:33;;;;;;;3.22;2.00;;;;;;;23.05;59.44;92473.84;4768766;30;20036;-77
2021/08/08 16:55:58;;;;;;;8.05;2.22;;;;;;;23.05;60.38;92471.94;4769545;30;20043;-77
2021/08/08 16:58:24;;;;;;;2.70;1.80;;;;;;;23.22;55.82;92473.28;4772262;30;20538;-77
2021/08/08 17:00:50;;;;;;;2.70;1.65;;;;;;;23.30;58.65;92482.13;4756161;30;20104;-77
2021/08/08 17:03:15;;;;;;;3.20;1.90;;;;;;;23.45;58.14;92477.72;4769662;30;20036;-77
2021/08/08 17:05:41;;;;;;;2.67;1.65;;;;;;;23.35;58.00;92481.81;4768442;30;20078;-77
2021/08/08 17:08:06;;;;;;;2.88;1.80;;;;;;;23.30;58.60;92478.69;4755569;30;20047;-77
2021/08/08 17:10:33;;;;;;;3.75;1.85;;;;;;;23.34;55.80;92484.84;4770698;30;20099;-78